Time;durP1;ratioP1;P1;durP2;ratioP2;P2;SDS_P1;SDS_P2;PMS_P1;PMS_P2;Temp;Humidity;BMP_temperature;BMP_pressure;BME280_temperature;BME280_humidity;BME280_pressure;Samples;Min_cycle;Max_cycle;Signal;HPM_P1;HPM_P2
2022/02/15 00:01:29;;;;;;;22.50;21.50;;;17.50;66.30;;;;;;5068122;28;20829;-46
2022/02/15 00:03:56;;;;;;;22.00;21.00;;;17.50;66.70;;;;;;5067962;28;20448;-45
2022/02/15 00:06:23;;;;;;;23.60;22.50;;;17.50;66.70;;;;;;5068360;28;20451;-46
2022/02/15 00:08:49;;;;;;;23.67;22.47;;;17.50;66.70;;;;;;5068613;28;20498;-45
2022/02/15 00:11:16;;;;;;;22.90;21.77;;;17.50;66.90;;;;;;5068040;28;20969;-45
2022/02/15 00:13:43;;;;;;;23.03;21.93;;;17.50;66.70;;;;;;5067602;28;20451;-48
2022/02/15 00:16:12;;;;;;;22.60;21.50;;;17.50;66.50;;;;;;5067694;28;21016;-45
2022/02/15 00:18:38;;;;;;;22.33;21.33;;;17.50;66.60;;;;;;5066717;28;20440;-49
2022/02/15 00:21:05;;;;;;;22.37;21.27;;;17.40;66.50;;;;;;5054087;28;20464;-45
2022/02/15 00:23:32;;;;;;;22.13;21.23;;;17.40;66.80;;;;;;5054258;28;20970;-45
2022/02/15 00:25:58;;;;;;;22.70;21.60;;;17.50;66.90;;;;;;5054204;28;20448;-46
2022/02/15 00:28:25;;;;;;;22.93;21.80;;;17.40;67.10;;;;;;5054372;28;20495;-48
2022/02/15 00:30:52;;;;;;;22.73;21.73;;;17.40;67.00;;;;;;5054153;28;20809;-45
2022/02/15 00:33:20;;;;;;;22.40;21.50;;;17.40;67.10;;;;;;5053960;28;20440;-45
2022/02/15 00:35:47;;;;;;;22.70;21.70;;;17.40;67.40;;;;;;5054154;28;20535;-45
2022/02/15 00:38:14;;;;;;;22.83;21.73;;;17.40;67.20;;;;;;5054176;28;20441;-48
2022/02/15 00:40:41;;;;;;;22.53;21.53;;;17.40;67.40;;;;;;5054126;28;20487;-49
2022/02/15 00:43:07;;;;;;;22.37;21.37;;;17.30;67.60;;;;;;5053847;28;20452;-51
2022/02/15 00:45:35;;;;;;;22.67;21.67;;;17.30;68.00;;;;;;5053906;28;20451;-45
2022/02/15 00:48:02;;;;;;;22.87;21.87;;;17.30;68.00;;;;;;5053578;28;20484;-46
2022/02/15 00:50:30;;;;;;;22.73;21.63;;;17.30;67.90;;;;;;5053907;28;20507;-47
2022/02/15 00:52:57;;;;;;;22.57;21.57;;;17.30;68.20;;;;;;5053724;28;20449;-45
2022/02/15 00:55:23;;;;;;;21.93;21.03;;;17.30;68.90;;;;;;5053661;28;20455;-45
2022/02/15 00:57:50;;;;;;;22.40;21.40;;;17.30;68.30;;;;;;5053946;28;20449;-46
2022/02/15 01:00:18;;;;;;;22.53;21.53;;;17.30;68.30;;;;;;5053655;28;20460;-45
2022/02/15 01:02:46;;;;;;;22.50;21.50;;;17.30;68.60;;;;;;5053626;28;20440;-47
2022/02/15 01:05:13;;;;;;;23.27;22.17;;;17.30;68.90;;;;;;5033665;28;20453;-46
2022/02/15 01:07:41;;;;;;;23.03;21.93;;;17.30;69.00;;;;;;5047643;28;20452;-45
2022/02/15 01:10:09;;;;;;;23.43;22.37;;;17.30;69.10;;;;;;5053567;28;20468;-45
2022/02/15 01:12:36;;;;;;;22.90;21.90;;;17.20;69.10;;;;;;5053538;28;20449;-46
2022/02/15 01:15:04;;;;;;;23.20;22.10;;;17.20;69.10;;;;;;5053116;28;20448;-48
2022/02/15 01:17:31;;;;;;;23.23;22.13;;;17.20;69.20;;;;;;5053287;28;20450;-46
2022/02/15 01:19:58;;;;;;;23.10;22.00;;;17.20;69.00;;;;;;5053264;28;20461;-45
2022/02/15 01:22:24;;;;;;;22.50;21.50;;;17.20;69.20;;;;;;5053313;28;20445;-47
2022/02/15 01:24:52;;;;;;;23.33;22.20;;;17.20;69.50;;;;;;5053060;28;20445;-48
2022/02/15 01:27:19;;;;;;;22.70;21.70;;;17.20;69.20;;;;;;5052970;28;20933;-45
2022/02/15 01:29:46;;;;;;;23.33;22.23;;;17.20;69.30;;;;;;5053037;28;20496;-46
2022/02/15 01:32:13;;;;;;;22.60;21.60;;;17.20;69.00;;;;;;5052156;28;20449;-46
2022/02/15 01:34:40;;;;;;;22.60;21.60;;;17.20;69.30;;;;;;5052797;28;20452;-45
2022/02/15 01:37:06;;;;;;;22.67;21.67;;;17.20;69.60;;;;;;5052994;28;20485;-47
2022/02/15 01:39:33;;;;;;;22.70;21.60;;;17.20;69.50;;;;;;5052977;28;20451;-46
2022/02/15 01:42:01;;;;;;;23.63;22.43;;;17.20;69.30;;;;;;5052893;28;20444;-46
2022/02/15 01:44:28;;;;;;;21.70;20.80;;;17.20;69.70;;;;;;5052735;28;20853;-45
2022/02/15 01:46:55;;;;;;;22.67;21.67;;;17.20;69.60;;;;;;5052535;28;20447;-48
2022/02/15 01:49:22;;;;;;;23.07;22.00;;;17.20;69.20;;;;;;5052667;28;20534;-47
2022/02/15 01:51:48;;;;;;;22.40;21.40;;;17.10;69.30;;;;;;5052727;28;20922;-45
2022/02/15 01:54:15;;;;;;;22.40;21.40;;;17.10;69.70;;;;;;5052516;28;20527;-48
2022/02/15 01:56:43;;;;;;;22.40;21.40;;;17.10;69.60;;;;;;5052575;28;20938;-45
2022/02/15 01:59:11;;;;;;;23.17;22.00;;;17.10;69.60;;;;;;5052566;28;20807;-48
2022/02/15 02:01:38;;;;;;;23.83;22.70;;;17.10;69.50;;;;;;5052535;28;20495;-47
2022/02/15 02:04:05;;;;;;;21.97;20.97;;;17.10;69.60;;;;;;5052404;28;20445;-45
2022/02/15 02:06:31;;;;;;;22.63;21.63;;;17.10;69.60;;;;;;5052271;28;20456;-48
2022/02/15 02:09:01;;;;;;;23.13;22.00;;;17.10;69.70;;;;;;5052144;28;20571;-50
2022/02/15 02:11:28;;;;;;;22.27;21.27;;;17.10;69.70;;;;;;5052397;28;20469;-46
2022/02/15 02:13:54;;;;;;;23.03;22.03;;;17.10;69.90;;;;;;5052196;28;20444;-50
2022/02/15 02:16:32;;;;;;;22.00;21.00;;;17.10;69.80;;;;;;5052040;28;20968;-45
2022/02/15 02:18:59;;;;;;;22.50;21.40;;;17.10;70.10;;;;;;5052367;28;20498;-46
2022/02/15 02:21:35;;;;;;;22.73;21.63;;;17.10;70.10;;;;;;5052216;28;20468;-47
2022/02/15 02:24:02;;;;;;;22.70;21.60;;;17.10;70.10;;;;;;5051811;28;20448;-45
2022/02/15 02:26:29;;;;;;;23.00;21.80;;;17.10;70.10;;;;;;5051750;28;20472;-49
2022/02/15 02:28:56;;;;;;;23.40;22.30;;;17.10;70.30;;;;;;5051991;28;20537;-49
2022/02/15 02:31:23;;;;;;;22.00;21.10;;;17.10;70.20;;;;;;5051893;28;20475;-47
2022/02/15 02:33:50;;;;;;;23.10;22.00;;;17.00;70.40;;;;;;5051764;28;20443;-46
2022/02/15 02:36:17;;;;;;;22.80;21.80;;;17.10;70.40;;;;;;5051741;28;20544;-45
2022/02/15 02:38:45;;;;;;;23.00;21.90;;;17.10;70.40;;;;;;5051948;28;20440;-49
2022/02/15 02:41:12;;;;;;;21.90;21.00;;;17.10;70.80;;;;;;5051843;28;20472;-48
2022/02/15 02:43:38;;;;;;;21.90;21.00;;;17.10;70.70;;;;;;5051365;28;20453;-49
2022/02/15 02:46:05;;;;;;;22.40;21.40;;;17.00;70.80;;;;;;5051589;28;20448;-51
2022/02/15 02:48:32;;;;;;;22.93;21.77;;;17.00;70.70;;;;;;5051642;28;20507;-47
2022/02/15 02:50:59;;;;;;;22.73;21.73;;;17.00;70.60;;;;;;5051828;28;20477;-47
2022/02/15 02:53:26;;;;;;;21.80;20.90;;;17.00;70.80;;;;;;5051512;28;20494;-47
2022/02/15 02:55:54;;;;;;;22.30;21.40;;;17.00;71.30;;;;;;5051308;28;20805;-46
2022/02/15 02:58:21;;;;;;;23.30;22.20;;;17.00;70.80;;;;;;5051609;28;20475;-50
2022/02/15 03:00:48;;;;;;;23.03;21.93;;;16.90;70.40;;;;;;5051599;28;20465;-49
2022/02/15 03:03:14;;;;;;;23.00;22.00;;;16.90;71.20;;;;;;5051390;28;20456;-45
2022/02/15 03:05:41;;;;;;;22.13;21.13;;;17.00;71.20;;;;;;5051424;28;20452;-45
2022/02/15 03:08:09;;;;;;;22.63;21.60;;;16.90;71.20;;;;;;5051414;28;20810;-49
2022/02/15 03:10:35;;;;;;;22.73;21.63;;;16.90;71.50;;;;;;5051514;28;20514;-49
2022/02/15 03:13:03;;;;;;;23.03;22.03;;;16.90;71.60;;;;;;5051439;28;20449;-45
2022/02/15 03:15:30;;;;;;;23.20;22.10;;;16.90;71.60;;;;;;5051049;28;20448;-47
2022/02/15 03:17:57;;;;;;;22.90;21.60;;;16.90;72.40;;;;;;5051542;28;20455;-48
2022/02/15 03:20:24;;;;;;;22.70;21.60;;;16.90;71.70;;;;;;5051304;28;20812;-48
2022/02/15 03:22:51;;;;;;;22.60;21.60;;;16.90;71.70;;;;;;5051572;28;20448;-47
2022/02/15 03:25:17;;;;;;;22.40;21.40;;;16.90;71.80;;;;;;5051045;28;20456;-46
2022/02/15 03:27:44;;;;;;;22.00;21.10;;;16.90;71.50;;;;;;5051308;28;20471;-50
2022/02/15 03:30:13;;;;;;;23.27;22.17;;;16.80;71.60;;;;;;5051163;28;20480;-47
2022/02/15 03:32:42;;;;;;;22.50;21.50;;;16.80;71.70;;;;;;5051355;28;20791;-46
2022/02/15 03:35:09;;;;;;;22.50;21.50;;;16.80;72.50;;;;;;5050954;28;20456;-49
2022/02/15 03:37:36;;;;;;;22.80;21.80;;;16.80;72.50;;;;;;5051246;28;20452;-45
2022/02/15 03:40:04;;;;;;;22.47;21.47;;;16.80;72.40;;;;;;5051192;28;20464;-46
2022/02/15 03:45:16;;;;;;;22.40;21.20;;;16.80;72.50;;;;;;5050648;28;20971;-45
2022/02/15 03:47:43;;;;;;;22.30;21.30;;;16.80;72.70;;;;;;5051089;28;20455;-48
2022/02/15 03:50:11;;;;;;;22.90;21.90;;;16.80;72.80;;;;;;5051294;28;20488;-48
2022/02/15 03:52:38;;;;;;;23.20;22.10;;;16.80;72.70;;;;;;5051274;28;20452;-48
2022/02/15 03:55:06;;;;;;;23.10;22.00;;;16.80;72.90;;;;;;5053091;28;20440;-48
2022/02/15 03:57:35;;;;;;;22.67;21.67;;;16.80;73.30;;;;;;5054714;28;20795;-48
2022/02/15 04:00:01;;;;;;;22.50;21.40;;;16.80;73.70;;;;;;5054761;28;20460;-45
2022/02/15 04:02:29;;;;;;;22.30;21.30;;;16.80;73.40;;;;;;5054632;28;20447;-46
2022/02/15 04:04:56;;;;;;;23.70;22.60;;;16.80;73.80;;;;;;5054875;28;20459;-45
2022/02/15 04:07:23;;;;;;;23.00;21.93;;;16.80;74.20;;;;;;5054375;28;20522;-48
2022/02/15 04:09:50;;;;;;;22.20;21.20;;;16.80;73.80;;;;;;5054657;28;20488;-47
2022/02/15 04:12:16;;;;;;;21.63;20.73;;;16.80;74.10;;;;;;5054331;28;20455;-45
2022/02/15 04:14:43;;;;;;;22.57;21.47;;;16.80;74.40;;;;;;5054508;28;20448;-49
2022/02/15 04:17:10;;;;;;;22.80;21.60;;;16.80;74.60;;;;;;5054357;28;20451;-46
2022/02/15 04:19:39;;;;;;;22.30;21.30;;;16.80;74.50;;;;;;5054459;28;20463;-47
2022/02/15 04:22:05;;;;;;;22.27;21.27;;;16.80;74.60;;;;;;5054149;28;20954;-46
2022/02/15 04:24:32;;;;;;;22.37;21.40;;;16.70;74.60;;;;;;5054488;28;20807;-46
2022/02/15 04:26:59;;;;;;;21.80;20.90;;;16.70;75.20;;;;;;5054107;28;20471;-46
2022/02/15 04:29:27;;;;;;;22.87;21.87;;;16.70;75.00;;;;;;5054185;28;20479;-46
2022/02/15 04:31:54;;;;;;;22.17;21.10;;;16.70;74.90;;;;;;5054092;28;20475;-46
2022/02/15 04:34:21;;;;;;;21.83;20.90;;;16.80;75.30;;;;;;5053387;28;20816;-46
2022/02/15 04:36:49;;;;;;;21.50;20.60;;;16.80;75.50;;;;;;5054071;28;20826;-46
2022/02/15 04:39:16;;;;;;;21.53;20.63;;;16.70;75.60;;;;;;5054100;28;20440;-50
2022/02/15 04:41:43;;;;;;;22.13;20.93;;;16.70;76.00;;;;;;5053999;28;20456;-45
2022/02/15 04:44:09;;;;;;;22.73;21.70;;;16.70;76.40;;;;;;5053780;28;20445;-50
2022/02/15 04:46:36;;;;;;;22.03;21.03;;;16.70;76.20;;;;;;5053879;28;20453;-47
2022/02/15 04:49:04;;;;;;;22.30;21.20;;;16.70;76.10;;;;;;5053856;28;20843;-48
2022/02/15 04:51:30;;;;;;;22.13;21.13;;;16.70;76.40;;;;;;5053917;28;20464;-46
2022/02/15 04:53:59;;;;;;;22.30;21.20;;;16.70;76.50;;;;;;5053811;28;20452;-49
2022/02/15 04:56:25;;;;;;;21.70;20.70;;;16.70;76.90;;;;;;5053765;28;20792;-46
2022/02/15 04:58:52;;;;;;;22.50;21.50;;;16.70;77.00;;;;;;5053848;28;20452;-45
2022/02/15 05:01:19;;;;;;;22.50;21.50;;;16.70;76.90;;;;;;5053388;28;20487;-49
2022/02/15 05:03:46;;;;;;;22.40;21.30;;;16.70;82.50;;;;;;5053809;28;20448;-45
2022/02/15 05:06:13;;;;;;;22.80;21.53;;;16.70;85.80;;;;;;5053404;28;20448;-46
2022/02/15 05:08:40;;;;;;;23.17;21.30;;;16.70;87.30;;;;;;5053524;28;20452;-47
2022/02/15 05:11:08;;;;;;;23.10;21.37;;;16.70;88.40;;;;;;5052954;28;20851;-45
2022/02/15 05:13:35;;;;;;;22.23;21.13;;;16.70;89.30;;;;;;5053649;28;20448;-49
2022/02/15 05:16:02;;;;;;;22.27;21.27;;;16.70;90.70;;;;;;5053215;28;20521;-46
2022/02/15 05:18:29;;;;;;;22.70;21.60;;;16.80;91.10;;;;;;5053482;28;20444;-49
2022/02/15 05:20:55;;;;;;;22.73;21.60;;;16.80;91.70;;;;;;5064375;22;20492;-42
2022/02/15 05:23:22;;;;;;;22.97;21.50;;;16.70;92.40;;;;;;5021124;28;20465;-42
2022/02/15 05:25:49;;;;;;;23.17;21.90;;;16.70;92.70;;;;;;5013554;28;20438;-42
2022/02/15 05:28:17;;;;;;;22.20;21.10;;;16.70;93.00;;;;;;5013512;28;20445;-42
2022/02/15 05:30:43;;;;;;;24.07;22.53;;;16.70;93.70;;;;;;5022106;28;20997;-42
2022/02/15 05:33:10;;;;;;;23.77;22.03;;;16.70;98.00;;;;;;5033256;28;20445;-43
2022/02/15 05:35:37;;;;;;;25.70;23.80;;;16.80;99.90;;;;;;5033036;28;20821;-42
2022/02/15 05:38:04;;;;;;;24.97;22.83;;;16.90;99.90;;;;;;5033028;28;20445;-44
2022/02/15 05:40:30;;;;;;;24.17;22.17;;;16.90;99.90;;;;;;5032793;28;20469;-42
2022/02/15 05:42:57;;;;;;;24.00;21.77;;;17.00;99.90;;;;;;5033044;28;20473;-42
2022/02/15 05:45:26;;;;;;;24.43;22.30;;;17.00;99.90;;;;;;5032692;28;20783;-42
2022/02/15 05:47:53;;;;;;;24.63;22.63;;;17.00;99.90;;;;;;5032945;28;20507;-41
2022/02/15 05:53:04;;;;;;;25.67;23.10;;;17.30;99.90;;;;;;5001223;28;20436;-42
2022/02/15 05:55:31;;;;;;;24.20;22.10;;;17.70;99.90;;;;;;5032744;28;20455;-41
2022/02/15 05:57:58;;;;;;;24.83;23.00;;;18.00;99.90;;;;;;5032846;28;20451;-45
2022/02/15 06:00:26;;;;;;;24.63;23.10;;;18.30;99.90;;;;;;5032604;28;20461;-44
2022/02/15 06:02:53;;;;;;;26.30;23.80;;;18.40;99.90;;;;;;5032283;28;20441;-42
2022/02/15 06:05:19;;;;;;;24.27;22.50;;;18.60;99.90;;;;;;5032306;28;20970;-42
2022/02/15 06:07:46;;;;;;;24.47;22.87;;;18.80;99.90;;;;;;5032603;28;20445;-42
2022/02/15 06:10:13;;;;;;;25.17;23.20;;;18.90;99.90;;;;;;5032328;28;20489;-41
2022/02/15 06:12:39;;;;;;;25.43;23.50;;;19.00;99.90;;;;;;5032430;28;20537;-42
2022/02/15 06:15:07;;;;;;;25.07;23.23;;;19.10;99.90;;;;;;5032545;28;20460;-41
2022/02/15 06:17:35;;;;;;;24.37;22.80;;;19.20;99.90;;;;;;5031683;28;20456;-42
2022/02/15 06:20:02;;;;;;;23.77;22.27;;;19.20;99.90;;;;;;5032027;28;20482;-41
2022/02/15 06:22:29;;;;;;;24.57;22.87;;;19.20;99.90;;;;;;5032325;28;20449;-42
2022/02/15 06:24:56;;;;;;;24.57;23.00;;;19.30;99.30;;;;;;5032243;28;20821;-41
2022/02/15 06:27:23;;;;;;;24.23;22.90;;;19.40;98.00;;;;;;5031995;28;20456;-43
2022/02/15 06:29:49;;;;;;;25.13;23.30;;;19.40;97.30;;;;;;5031998;28;20477;-42
2022/02/15 06:32:16;;;;;;;26.27;24.60;;;19.50;96.60;;;;;;5032232;28;20445;-45
2022/02/15 06:34:44;;;;;;;26.20;24.67;;;19.50;95.60;;;;;;5032012;28;20457;-43
2022/02/15 06:37:14;;;;;;;24.67;23.30;;;19.50;95.40;;;;;;5031838;28;20477;-43
2022/02/15 06:39:41;;;;;;;28.47;26.80;;;19.50;93.90;;;;;;5031868;28;20449;-41
2022/02/15 06:42:08;;;;;;;28.90;26.60;;;19.50;93.90;;;;;;5031897;28;20457;-42
2022/02/15 06:44:35;;;;;;;30.90;28.77;;;19.50;92.80;;;;;;5031878;28;20963;-42
2022/02/15 06:47:02;;;;;;;29.80;28.00;;;19.50;92.00;;;;;;5031689;28;20456;-42
2022/02/15 06:49:29;;;;;;;30.00;27.87;;;19.60;91.60;;;;;;5031631;28;20923;-42
2022/02/15 06:51:57;;;;;;;30.90;28.90;;;19.60;91.30;;;;;;5031736;28;20480;-42
2022/02/15 06:54:24;;;;;;;28.63;26.80;;;19.60;90.90;;;;;;5031741;28;20477;-42
2022/02/15 06:56:50;;;;;;;28.90;27.20;;;19.60;90.00;;;;;;5031355;28;20817;-41
2022/02/15 06:59:17;;;;;;;26.63;25.00;;;19.60;89.10;;;;;;5031737;28;20457;-43
2022/02/15 07:01:44;;;;;;;29.17;27.37;;;19.60;88.40;;;;;;5031694;28;20461;-42
2022/02/15 07:04:11;;;;;;;28.23;26.60;;;19.60;87.10;;;;;;5031683;28;20456;-43
2022/02/15 07:06:39;;;;;;;27.20;25.80;;;19.60;86.00;;;;;;5031378;28;20445;-43
2022/02/15 07:09:07;;;;;;;27.87;26.30;;;19.60;85.30;;;;;;5031601;28;20529;-42
2022/02/15 07:11:34;;;;;;;27.47;25.80;;;19.60;84.10;;;;;;5031575;28;20496;-42
2022/02/15 07:14:01;;;;;;;26.00;24.60;;;19.60;83.30;;;;;;5031682;28;20957;-42
2022/02/15 07:16:27;;;;;;;29.47;27.90;;;19.60;83.40;;;;;;5031366;28;20452;-42
2022/02/15 07:18:54;;;;;;;28.30;26.77;;;19.60;82.30;;;;;;5031542;28;20445;-43
2022/02/15 07:21:21;;;;;;;29.30;27.30;;;19.60;80.70;;;;;;5031337;28;20885;-42
2022/02/15 07:23:48;;;;;;;27.40;25.70;;;19.60;80.50;;;;;;5031462;28;20445;-42
2022/02/15 07:26:16;;;;;;;28.10;26.70;;;19.60;79.70;;;;;;5031417;28;20473;-43
2022/02/15 07:28:42;;;;;;;28.90;27.27;;;19.60;79.00;;;;;;5031457;28;20453;-44
2022/02/15 07:31:09;;;;;;;26.20;24.50;;;19.60;78.80;;;;;;5034970;28;20496;-42
2022/02/15 07:33:36;;;;;;;28.13;26.63;;;19.60;77.70;;;;;;5035463;28;20446;-42
2022/02/15 07:36:03;;;;;;;25.70;24.40;;;19.60;77.40;;;;;;5035047;28;20828;-42
2022/02/15 07:38:30;;;;;;;25.20;23.90;;;19.50;77.30;;;;;;5035283;28;20452;-41
2022/02/15 07:40:56;;;;;;;25.73;24.33;;;19.50;76.90;;;;;;5035363;28;20464;-42
2022/02/15 07:43:25;;;;;;;25.80;24.50;;;19.50;76.30;;;;;;5035279;28;20444;-42
2022/02/15 07:45:52;;;;;;;24.00;22.80;;;19.50;75.00;;;;;;5035023;28;20946;-42
2022/02/15 07:48:19;;;;;;;24.20;23.00;;;19.40;75.30;;;;;;5035141;28;20452;-42
2022/02/15 07:50:46;;;;;;;31.70;29.60;;;19.40;75.00;;;;;;5034870;28;20842;-42
2022/02/15 07:53:14;;;;;;;24.50;23.07;;;19.40;74.20;;;;;;5035133;28;20766;-41
2022/02/15 07:55:41;;;;;;;25.73;24.43;;;19.40;74.60;;;;;;5034820;28;20446;-42
2022/02/15 07:58:08;;;;;;;25.23;24.03;;;19.40;73.70;;;;;;5034860;28;20452;-42
2022/02/15 08:00:36;;;;;;;25.20;23.97;;;19.30;73.60;;;;;;5034966;28;20461;-42
2022/02/15 08:03:02;;;;;;;26.63;25.13;;;19.30;73.80;;;;;;5034856;28;20444;-42
2022/02/15 08:05:29;;;;;;;27.63;26.23;;;19.30;73.20;;;;;;5034550;28;20760;-43
2022/02/15 08:07:58;;;;;;;25.10;23.80;;;19.20;72.50;;;;;;5000782;28;20442;-42
2022/02/15 08:10:26;;;;;;;26.13;24.70;;;19.20;72.60;;;;;;4995017;28;20490;-41
2022/02/15 08:12:55;;;;;;;24.70;23.40;;;19.20;72.10;;;;;;5007080;28;20442;-41
2022/02/15 08:15:23;;;;;;;25.17;23.87;;;19.10;71.80;;;;;;5014127;28;20508;-42
2022/02/15 08:17:56;;;;;;;25.40;24.10;;;19.10;72.10;;;;;;5014708;28;20536;-42
2022/02/15 08:20:29;;;;;;;24.97;23.57;;;19.10;73.00;;;;;;4999266;28;20525;-42
2022/02/15 08:23:01;;;;;;;26.23;24.73;;;19.00;73.60;;;;;;5012171;28;20453;-43
2022/02/15 08:25:35;;;;;;;26.40;25.00;;;19.00;73.50;;;;;;5014483;28;20446;-43
2022/02/15 08:28:08;;;;;;;26.07;24.47;;;18.90;73.30;;;;;;5002326;28;20446;-42
2022/02/15 08:30:42;;;;;;;25.97;24.47;;;18.90;73.00;;;;;;4995031;28;20526;-42
2022/02/15 08:33:18;;;;;;;26.77;25.37;;;18.90;73.00;;;;;;4995044;28;20473;-42
2022/02/15 08:35:50;;;;;;;25.97;24.67;;;18.90;72.40;;;;;;4994807;28;20451;-42
2022/02/15 08:38:22;;;;;;;24.47;23.27;;;18.80;72.80;;;;;;5008109;28;20450;-41
2022/02/15 08:40:55;;;;;;;24.60;23.30;;;18.80;72.80;;;;;;5013761;28;20454;-42
2022/02/15 08:43:29;;;;;;;25.23;23.90;;;18.80;72.00;;;;;;4998749;28;20509;-44
2022/02/15 08:46:03;;;;;;;26.07;24.70;;;18.80;71.80;;;;;;5014241;28;20500;-42
2022/02/15 08:48:36;;;;;;;25.93;24.63;;;18.70;71.10;;;;;;5014450;28;20442;-42
2022/02/15 08:51:03;;;;;;;25.83;24.53;;;18.80;70.50;;;;;;5014070;28;20556;-42
2022/02/15 08:53:30;;;;;;;25.23;23.90;;;18.80;70.90;;;;;;5014138;28;20461;-42
2022/02/15 08:55:56;;;;;;;26.77;25.47;;;18.80;71.00;;;;;;5014028;28;20450;-42
2022/02/15 08:58:24;;;;;;;27.07;25.77;;;18.80;69.20;;;;;;5014111;28;20446;-43
2022/02/15 09:00:51;;;;;;;25.27;24.03;;;18.80;69.20;;;;;;5013991;28;20462;-42
2022/02/15 09:03:17;;;;;;;27.27;25.97;;;18.90;68.60;;;;;;5013962;28;20452;-42
2022/02/15 09:05:46;;;;;;;24.30;23.10;;;18.90;68.30;;;;;;5013680;28;20446;-42
2022/02/15 09:08:12;;;;;;;25.53;24.13;;;19.00;68.00;;;;;;5013767;28;20814;-42
2022/02/15 09:10:39;;;;;;;25.30;24.00;;;19.00;67.80;;;;;;5013711;28;20482;-43
2022/02/15 09:13:06;;;;;;;25.53;24.23;;;19.10;66.20;;;;;;5013726;28;20453;-42
2022/02/15 09:15:33;;;;;;;25.10;23.80;;;19.10;66.30;;;;;;5013704;28;20457;-42
2022/02/15 09:18:00;;;;;;;24.70;23.50;;;19.00;65.10;;;;;;5013745;28;20454;-43
2022/02/15 09:20:27;;;;;;;24.23;23.03;;;19.10;64.90;;;;;;5013299;28;20478;-42
2022/02/15 09:22:55;;;;;;;24.37;23.10;;;19.10;65.40;;;;;;5013743;28;20959;-42
2022/02/15 09:25:22;;;;;;;24.27;23.07;;;19.10;64.90;;;;;;5013469;28;20446;-42
2022/02/15 09:27:48;;;;;;;24.80;23.70;;;19.10;65.00;;;;;;5013453;28;20450;-42
2022/02/15 09:30:15;;;;;;;24.47;23.27;;;19.10;65.10;;;;;;5013453;28;20477;-42
2022/02/15 09:32:42;;;;;;;23.90;22.70;;;19.10;64.90;;;;;;5013436;28;20450;-42
2022/02/15 09:35:09;;;;;;;24.30;23.10;;;19.10;64.80;;;;;;5013283;28;20446;-42
2022/02/15 09:37:36;;;;;;;25.10;23.90;;;19.00;63.70;;;;;;5013365;28;20446;-42
2022/02/15 09:40:05;;;;;;;25.67;24.27;;;19.00;63.70;;;;;;5013200;28;20478;-42
2022/02/15 09:42:31;;;;;;;25.23;23.83;;;19.00;63.80;;;;;;5013218;28;20947;-41
2022/02/15 09:44:58;;;;;;;24.90;23.60;;;19.00;63.80;;;;;;5013166;28;20469;-42
2022/02/15 09:47:27;;;;;;;23.73;22.53;;;19.00;63.90;;;;;;5013015;28;20454;-42
2022/02/15 09:49:54;;;;;;;24.60;23.40;;;18.90;63.20;;;;;;5013003;28;20450;-42
2022/02/15 09:52:23;;;;;;;24.80;23.60;;;18.90;63.50;;;;;;5012181;28;20508;-42
2022/02/15 09:54:52;;;;;;;25.87;24.57;;;18.90;62.60;;;;;;5012955;28;20448;-42
2022/02/15 09:57:21;;;;;;;25.97;24.70;;;18.90;63.20;;;;;;5012773;28;20870;-42
2022/02/15 09:59:50;;;;;;;24.07;22.97;;;18.90;62.70;;;;;;5013019;28;20456;-42
2022/02/15 10:02:21;;;;;;;23.83;22.63;;;18.80;62.60;;;;;;5013046;28;20936;-43
2022/02/15 10:04:52;;;;;;;26.93;25.53;;;18.80;63.20;;;;;;5012863;28;20446;-42
2022/02/15 10:07:19;;;;;;;25.73;24.53;;;18.90;62.80;;;;;;5012666;28;20448;-43
2022/02/15 10:09:49;;;;;;;26.10;24.70;;;18.80;62.80;;;;;;5012837;28;20443;-42
2022/02/15 10:12:16;;;;;;;25.70;24.40;;;18.80;62.70;;;;;;5012815;28;20847;-42
2022/02/15 10:14:45;;;;;;;27.10;25.70;;;18.80;62.40;;;;;;5012601;28;20794;-42
2022/02/15 10:17:15;;;;;;;25.33;23.93;;;18.70;61.70;;;;;;5012488;28;20451;-42
2022/02/15 10:19:43;;;;;;;26.13;24.93;;;18.70;62.00;;;;;;5012476;28;20816;-41
2022/02/15 10:22:10;;;;;;;27.73;26.33;;;18.80;61.80;;;;;;5012561;28;20813;-42
2022/02/15 10:24:39;;;;;;;25.83;24.53;;;18.90;61.90;;;;;;5012666;28;20449;-42
2022/02/15 10:27:07;;;;;;;26.07;24.57;;;18.90;61.60;;;;;;5012203;28;20446;-44
2022/02/15 10:29:36;;;;;;;24.30;23.10;;;18.80;61.10;;;;;;5012525;28;20454;-42
2022/02/15 10:32:06;;;;;;;24.00;22.70;;;18.80;61.10;;;;;;5012149;28;20482;-42
2022/02/15 10:34:33;;;;;;;24.70;23.40;;;18.90;60.70;;;;;;5012351;28;20446;-42
2022/02/15 10:37:01;;;;;;;25.50;24.10;;;18.90;60.80;;;;;;5012086;28;20952;-42
2022/02/15 10:39:42;;;;;;;25.70;24.30;;;19.00;60.70;;;;;;5012278;28;20453;-43
2022/02/15 10:42:10;;;;;;;26.10;24.90;;;19.20;60.30;;;;;;5012187;28;20442;-42
2022/02/15 10:44:49;;;;;;;26.70;25.50;;;19.20;59.50;;;;;;5012249;28;20824;-42
2022/02/15 10:47:17;;;;;;;23.60;22.50;;;19.40;59.50;;;;;;5012064;28;20450;-42
2022/02/15 10:49:44;;;;;;;24.73;23.53;;;19.40;59.00;;;;;;5012045;28;20446;-43
2022/02/15 10:52:11;;;;;;;25.80;24.50;;;19.50;58.50;;;;;;5012178;28;20490;-42
2022/02/15 10:54:39;;;;;;;26.37;25.07;;;19.50;58.30;;;;;;5012109;28;20820;-42
2022/02/15 10:57:06;;;;;;;26.70;25.40;;;19.40;58.20;;;;;;5011875;28;20454;-42
2022/02/15 10:59:34;;;;;;;26.30;25.00;;;19.30;57.60;;;;;;5011267;28;20453;-44
2022/02/15 11:02:02;;;;;;;25.90;24.70;;;19.40;57.90;;;;;;4993119;28;21011;-42
2022/02/15 11:04:32;;;;;;;27.40;25.83;;;19.50;57.70;;;;;;4992173;28;20783;-42
2022/02/15 11:07:04;;;;;;;26.33;25.03;;;19.50;58.10;;;;;;4992442;28;20917;-42
2022/02/15 11:09:38;;;;;;;23.98;22.77;;;19.50;59.10;;;;;;5005509;28;20505;-43
2022/02/15 11:12:17;;;;;;;26.20;24.80;;;19.60;59.10;;;;;;5011869;28;20219;-43
2022/02/15 11:14:51;;;;;;;25.87;24.57;;;19.60;60.30;;;;;;5010732;28;20462;-44
2022/02/15 11:17:18;;;;;;;25.23;24.03;;;19.50;62.20;;;;;;4991976;28;20462;-42
2022/02/15 11:19:56;;;;;;;23.37;22.30;;;19.50;63.30;;;;;;4992074;28;20449;-46
2022/02/15 11:22:23;;;;;;;24.30;23.20;;;19.50;64.90;;;;;;4992718;28;20820;-43
2022/02/15 11:24:49;;;;;;;23.27;22.10;;;19.60;65.90;;;;;;4991762;28;20456;-43
2022/02/15 11:27:19;;;;;;;27.37;25.97;;;19.60;64.70;;;;;;4992067;28;20812;-43
2022/02/15 11:29:53;;;;;;;26.20;24.90;;;19.70;65.40;;;;;;4992037;28;20451;-44
2022/02/15 11:32:28;;;;;;;25.00;23.80;;;19.80;66.00;;;;;;4991792;28;20485;-43
2022/02/15 11:34:56;;;;;;;24.90;23.70;;;19.80;65.60;;;;;;4992264;28;20482;-45
2022/02/15 11:37:25;;;;;;;24.93;23.63;;;19.80;64.90;;;;;;4991919;28;21105;-42
2022/02/15 11:40:05;;;;;;;24.10;22.97;;;19.90;64.10;;;;;;4991936;28;20467;-44
2022/02/15 11:42:42;;;;;;;24.07;22.87;;;20.00;62.40;;;;;;4991610;28;20450;-44
2022/02/15 11:45:25;;;;;;;24.40;23.20;;;20.10;61.40;;;;;;4992096;28;20816;-43
2022/02/15 11:47:51;;;;;;;28.60;27.20;;;20.60;62.40;;;;;;4992046;28;20506;-43
2022/02/15 11:50:20;;;;;;;27.90;26.50;;;21.60;60.40;;;;;;4991892;28;20475;-42
2022/02/15 11:52:48;;;;;;;27.10;25.70;;;23.20;55.90;;;;;;4991027;28;20487;-42
2022/02/15 11:55:16;;;;;;;28.10;26.70;;;23.90;53.20;;;;;;4991818;28;20478;-42
2022/02/15 11:57:44;;;;;;;29.50;28.00;;;24.80;50.60;;;;;;4991765;28;20466;-44
2022/02/15 12:00:12;;;;;;;28.30;26.90;;;25.40;48.60;;;;;;4991847;28;20463;-40
2022/02/15 12:02:39;;;;;;;28.57;27.17;;;26.10;46.70;;;;;;4991821;28;20805;-40
2022/02/15 12:05:07;;;;;;;28.90;27.50;;;26.30;45.40;;;;;;4991770;28;20461;-41
2022/02/15 12:07:36;;;;;;;28.93;27.43;;;26.80;43.80;;;;;;4991685;28;20457;-40
2022/02/15 12:10:08;;;;;;;28.90;27.50;;;26.10;42.60;;;;;;4991563;28;20471;-40
2022/02/15 12:12:37;;;;;;;28.70;27.30;;;26.60;43.10;;;;;;4991804;28;20487;-40
2022/02/15 12:15:06;;;;;;;27.10;25.70;;;26.80;41.90;;;;;;4991954;28;20455;-40
2022/02/15 12:17:39;;;;;;;25.30;24.10;;;26.60;41.90;;;;;;4995078;28;20536;-40
2022/02/15 12:20:07;;;;;;;26.27;24.97;;;27.10;41.40;;;;;;4995208;28;20900;-41
2022/02/15 12:22:39;;;;;;;26.40;25.10;;;27.30;40.60;;;;;;4995445;28;20817;-40
2022/02/15 12:25:08;;;;;;;28.30;26.90;;;27.20;40.30;;;;;;4995131;28;20474;-42
2022/02/15 12:27:35;;;;;;;28.93;27.53;;;26.90;40.00;;;;;;4994892;28;20483;-40
2022/02/15 12:30:01;;;;;;;28.40;27.00;;;26.00;40.50;;;;;;4994859;28;20470;-41
2022/02/15 12:32:30;;;;;;;28.17;26.77;;;25.20;41.70;;;;;;4994779;28;20482;-42
2022/02/15 12:34:58;;;;;;;28.23;26.83;;;24.50;42.60;;;;;;4995000;28;20941;-40
2022/02/15 12:37:26;;;;;;;29.43;28.03;;;24.60;43.60;;;;;;4994637;28;20869;-40